No particular awareness of the weather is required.    There are no Weather-warnings


Meteo18 Weather Cam more information Meteo18 Weather Cam


Thunder radar more information blitzortung!


Rain radar more information rain snow radar


Visit our other weather sites:

Template documentation
and downloads

And another site



Weather Underground History page Text

Daily Summary for September 15, 2017 Units:  English    Metric   Both
« Previous Day
Next Day »
Daily Weekly Monthly Yearly Custom
  High: Low: Average:
Temperature: 62.2 °F 48.7 °F 53.8 °F
Dew Point: 51.4 °F 41.2 °F 46.6 °F
Humidity: 95 % 47 % 78 %
Wind Speed: 9 mph 0 mph 1.6 mph
Wind Gust: 14 mph - -
Wind:- - WSW
Pressure: 30.1 in 29.9 in -
Precipitation: 0 in    
Historical Graphs
 
 
Tabular Data for September 15, 2017
Time Temperature Dew Point Pressure Wind Wind Speed Wind Gust Humidity Rainfall Rate (Hourly)
00:02 50.2 °F 45.5 °F 30.1 in Calm     84 % 0 in
00:07 50.2 °F 45.5 °F 30.1 in Calm     84 % 0 in
00:12 50.2 °F 45.5 °F 30.1 in Calm     84 % 0 in
00:17 50.2 °F 45.5 °F 30.1 in Calm     84 % 0 in
00:22 50.2 °F 45.5 °F 30.1 in Calm     84 % 0 in
00:32 50.2 °F 45.9 °F 30.1 in Calm   2 mph 85 % 0 in
00:42 50 °F 45.7 °F 30.1 in Calm   3 mph 85 % 0 in
00:47 50.2 °F 45.9 °F 30.1 in SSW 1 mph 2 mph 85 % 0 in
00:52 50.5 °F 45.5 °F 30.1 in SW 1 mph 2 mph 83 % 0 in
00:57 50.7 °F 45.7 °F 30.1 in SSW 1 mph 2 mph 83 % 0 in
01:02 50.7 °F 46 °F 30.1 in Calm   3 mph 84 % 0 in
01:07 50.7 °F 46 °F 30.1 in Calm   3 mph 84 % 0 in
01:12 50.7 °F 46 °F 30.1 in Calm   3 mph 84 % 0 in
01:17 50.7 °F 46 °F 30.1 in Calm   1 mph 84 % 0 in
01:22 50.7 °F 46.4 °F 30.1 in Calm   1 mph 85 % 0 in
01:27 50.7 °F 46.8 °F 30.1 in Calm   1 mph 86 % 0 in
01:32 50.7 °F 46.9 °F 30.1 in SSE 1 mph 1 mph 87 % 0 in
01:42 50.5 °F 46.8 °F 30.1 in Calm   1 mph 87 % 0 in
01:47 50.4 °F 46.9 °F 30.1 in Calm   1 mph 88 % 0 in
01:52 50.4 °F 46.9 °F 30.1 in Calm     88 % 0 in
01:57 50.2 °F 46.8 °F 30.1 in Calm   1 mph 88 % 0 in
02:02 50.2 °F 47.1 °F 30.1 in Calm   1 mph 89 % 0 in
02:07 50.2 °F 47.1 °F 30.1 in SW 1 mph 1 mph 89 % 0 in
02:12 50.2 °F 47.3 °F 30.1 in Calm   2 mph 90 % 0 in
02:17 50.5 °F 47.7 °F 30.1 in Calm   2 mph 90 % 0 in
02:22 50.7 °F 47.8 °F 30.1 in Calm   2 mph 90 % 0 in
02:27 50.5 °F 47.7 °F 30.1 in Calm   1 mph 90 % 0 in
02:32 50.5 °F 47.7 °F 30.1 in Calm     90 % 0 in
02:37 50.5 °F 47.7 °F 30.1 in Calm     90 % 0 in
02:42 50.4 °F 47.5 °F 30.1 in Calm   2 mph 90 % 0 in
02:47 50.2 °F 47.3 °F 30.1 in Calm   2 mph 90 % 0 in
02:52 50.2 °F 47.3 °F 30.1 in Calm   2 mph 90 % 0 in
02:57 50 °F 47.1 °F 30.1 in Calm   1 mph 90 % 0 in
03:02 50 °F 47.1 °F 30.1 in Calm     90 % 0 in
03:07 50 °F 47.5 °F 30.1 in SSW 1 mph   91 % 0 in
03:12 50 °F 47.5 °F 30.1 in SSW 2 mph 3 mph 91 % 0 in
03:17 50.2 °F 47.7 °F 30.1 in Calm   3 mph 91 % 0 in
03:22 50.2 °F 47.7 °F 30.1 in SSW 2 mph 3 mph 91 % 0 in
03:27 50.2 °F 47.3 °F 30.1 in SW 4 mph 4 mph 90 % 0 in
03:32 50.4 °F 47.5 °F 30.1 in SSW 1 mph 4 mph 90 % 0 in
03:37 50.4 °F 47.3 °F 30.1 in Calm   4 mph 89 % 0 in
03:42 50.2 °F 47.1 °F 30.1 in SSW 1 mph 4 mph 89 % 0 in
03:47 50.2 °F 47.1 °F 30 in Calm   3 mph 89 % 0 in
03:57 49.6 °F 46.6 °F 30 in Calm   2 mph 89 % 0 in
04:02 49.5 °F 46.4 °F 30 in SSE 1 mph 2 mph 89 % 0 in
04:07 49.3 °F 46.4 °F 30 in Calm   2 mph 90 % 0 in
04:12 48.9 °F 46 °F 30 in Calm   2 mph 90 % 0 in
04:17 48.7 °F 46.2 °F 30 in SSW 1 mph 2 mph 91 % 0 in
04:22 48.7 °F 46.2 °F 30 in Calm   1 mph 91 % 0 in
04:32 48.7 °F 46.6 °F 30 in Calm   2 mph 92 % 0 in
04:37 48.9 °F 46.8 °F 30 in Calm   2 mph 92 % 0 in
04:42 48.9 °F 46.8 °F 30 in Calm   1 mph 92 % 0 in
04:47 48.9 °F 46.8 °F 30 in SSW 1 mph 1 mph 92 % 0 in
04:52 49.1 °F 47.1 °F 30 in SW 2 mph 2 mph 93 % 0 in
04:57 49.3 °F 47.3 °F 30 in SW 1 mph 2 mph 93 % 0 in
05:02 49.5 °F 47.5 °F 30 in WSW 3 mph 4 mph 93 % 0 in
05:22 49.5 °F 47.3 °F 30 in Calm   3 mph 92 % 0 in
05:32 49.3 °F 47.1 °F 30 in NE 1 mph 2 mph 92 % 0 in
05:37 49.3 °F 47.3 °F 30 in Calm   1 mph 93 % 0 in
05:42 49.1 °F 47.1 °F 30 in Calm   1 mph 93 % 0 in
05:47 49.1 °F 47.1 °F 30 in Calm   1 mph 93 % 0 in
05:52 48.9 °F 46.9 °F 30 in Calm   2 mph 93 % 0 in
05:57 48.9 °F 46.9 °F 30 in Calm   2 mph 93 % 0 in
06:02 48.9 °F 46.9 °F 30 in Calm   2 mph 93 % 0 in
06:12 48.9 °F 47.3 °F 30 in Calm   2 mph 94 % 0 in
06:17 48.7 °F 47.1 °F 30 in Calm   1 mph 94 % 0 in
06:22 48.7 °F 47.1 °F 30 in South 1 mph 1 mph 94 % 0 in
06:27 48.9 °F 47.3 °F 30 in South 1 mph 2 mph 94 % 0 in
06:32 48.9 °F 47.3 °F 30 in Calm   2 mph 94 % 0 in
06:42 48.9 °F 47.3 °F 30 in South 2 mph 2 mph 94 % 0 in
06:52 49.1 °F 47.7 °F 30 in SW 2 mph 3 mph 95 % 0 in
06:57 49.3 °F 47.8 °F 30 in SW 1 mph 4 mph 95 % 0 in
07:02 49.3 °F 47.8 °F 30 in SW 1 mph 4 mph 95 % 0 in
07:12 49.3 °F 47.7 °F 30 in SSW 2 mph 4 mph 94 % 0 in
07:17 49.3 °F 47.7 °F 30 in SSW 1 mph 4 mph 94 % 0 in
07:22 49.1 °F 47.5 °F 30 in Calm   3 mph 94 % 0 in
07:32 48.9 °F 47.3 °F 30 in Calm   2 mph 94 % 0 in
07:37 48.7 °F 47.1 °F 30 in Calm   3 mph 94 % 0 in
07:42 48.7 °F 47.3 °F 30 in Calm   3 mph 95 % 0 in
07:47 48.7 °F 47.3 °F 30 in Calm   3 mph 95 % 0 in
07:52 48.7 °F 47.3 °F 30 in SSE 1 mph 2 mph 95 % 0 in
07:57 48.7 °F 47.3 °F 30 in ESE 1 mph 2 mph 95 % 0 in
08:02 48.9 °F 47.5 °F 30 in South 2 mph 2 mph 95 % 0 in
08:12 49.3 °F 47.8 °F 30 in Calm   3 mph 95 % 0 in
08:17 49.3 °F 47.8 °F 30 in Calm   3 mph 95 % 0 in
08:22 49.5 °F 48 °F 30 in Calm   2 mph 95 % 0 in
08:32 49.8 °F 48.4 °F 30 in WSW 1 mph 2 mph 95 % 0 in
08:37 50 °F 48.6 °F 30 in SW 3 mph 5 mph 95 % 0 in
08:42 50.2 °F 48.7 °F 30 in Calm   6 mph 95 % 0 in
08:47 50.2 °F 48.7 °F 30 in WSW 1 mph 6 mph 95 % 0 in
08:52 50.4 °F 48.9 °F 30 in WSW 3 mph 6 mph 95 % 0 in
09:02 50.5 °F 49.1 °F 30 in Calm   6 mph 95 % 0 in
09:12 50.5 °F 48.9 °F 30 in SSW 1 mph 3 mph 94 % 0 in
09:17 50.7 °F 49.1 °F 30 in WSW 2 mph 2 mph 94 % 0 in
09:22 50.7 °F 49.1 °F 30 in SW 1 mph 5 mph 94 % 0 in
09:32 51.1 °F 49.5 °F 30 in West 2 mph 5 mph 94 % 0 in
09:42 51.3 °F 49.3 °F 30 in Calm   5 mph 93 % 0 in
09:47 51.3 °F 49.3 °F 30 in SW 3 mph 4 mph 93 % 0 in
09:52 51.1 °F 49.1 °F 30 in SSW 2 mph 4 mph 93 % 0 in
09:57 51.1 °F 49.1 °F 30 in SSW 3 mph 5 mph 93 % 0 in
10:02 51.3 °F 49.3 °F 30 in SSW 2 mph 5 mph 93 % 0 in
10:12 51.3 °F 49.3 °F 30 in SW 1 mph 5 mph 93 % 0 in
10:17 51.4 °F 49.3 °F 30 in SSW 3 mph 5 mph 92 % 0 in
10:22 51.4 °F 49.5 °F 30 in South 2 mph 5 mph 93 % 0 in
10:32 51.6 °F 49.5 °F 30 in SSW 2 mph 6 mph 92 % 0 in
10:37 51.8 °F 49.6 °F 30 in SSW 3 mph 6 mph 92 % 0 in
10:42 52.2 °F 49.8 °F 30 in SW 2 mph 6 mph 92 % 0 in
10:47 52.3 °F 49.8 °F 30 in SSW 3 mph 5 mph 91 % 0 in
10:52 52.7 °F 49.8 °F 30 in SSW 2 mph 6 mph 90 % 0 in
11:02 54 °F 51.1 °F 30 in WSW 4 mph 6 mph 90 % 0 in
11:12 54.3 °F 50.9 °F 30 in WSW 4 mph 8 mph 88 % 0 in
11:17 54.3 °F 50.5 °F 30 in SW 2 mph 9 mph 87 % 0 in
11:22 54.5 °F 50.7 °F 30 in SW 3 mph 9 mph 87 % 0 in
11:32 54.7 °F 50.9 °F 30 in SW 8 mph 8 mph 87 % 0 in
11:42 55.2 °F 51.4 °F 30 in SSW 4 mph 11 mph 87 % 0 in
11:52 55.2 °F 50.7 °F 30 in SW 1 mph 9 mph 85 % 0 in
12:02 55.8 °F 50.7 °F 30 in West 2 mph 9 mph 83 % 0 in
12:12 55.4 °F 49.6 °F 30 in West 3 mph 6 mph 81 % 0 in
12:17 55.2 °F 49.5 °F 30 in West 3 mph 7 mph 81 % 0 in
12:22 55.9 °F 49.1 °F 30 in West 5 mph 7 mph 78 % 0 in
12:32 56.8 °F 49.6 °F 30 in West 4 mph 5 mph 77 % 0 in
12:37 56.5 °F 48.7 °F 30 in West 5 mph 6 mph 75 % 0 in
12:42 56.7 °F 48.7 °F 30 in West 6 mph 6 mph 75 % 0 in
12:52 57.7 °F 49.1 °F 30 in SW 3 mph 7 mph 73 % 0 in
13:02 58.5 °F 48.7 °F 30 in WNW 6 mph 9 mph 70 % 0 in
13:12 58.8 °F 48.7 °F 30 in South 2 mph 9 mph 69 % 0 in
13:17 59.2 °F 48.6 °F 30 in West 2 mph 8 mph 68 % 0 in
13:22 59.7 °F 48.7 °F 30 in West 6 mph 9 mph 67 % 0 in
13:27 59.5 °F 46 °F 30 in Calm   9 mph 61 % 0 in
13:32 59.5 °F 46.6 °F 30 in West 3 mph 9 mph 62 % 0 in
13:42 60.4 °F 47.8 °F 30 in SW 4 mph 9 mph 63 % 0 in
13:47 61 °F 46.9 °F 30 in WNW 3 mph 7 mph 60 % 0 in
13:52 61.2 °F 48 °F 30 in WNW 2 mph 7 mph 62 % 0 in
13:57 59.9 °F 48 °F 30 in NW 5 mph 7 mph 65 % 0 in
14:02 59.2 °F 47.8 °F 30 in NW 3 mph 10 mph 66 % 0 in
14:12 58.3 °F 46.6 °F 30 in SW 3 mph 10 mph 65 % 0 in
14:17 57.9 °F 45 °F 30 in NW 2 mph 11 mph 62 % 0 in
14:22 58.3 °F 44.4 °F 30 in West 7 mph 11 mph 60 % 0 in
14:27 57.7 °F 43.9 °F 30 in West 6 mph 13 mph 60 % 0 in
14:32 57.6 °F 44.6 °F 30 in WNW 4 mph 13 mph 62 % 0 in
14:37 57.6 °F 45.1 °F 30 in NW 3 mph 13 mph 63 % 0 in
14:42 57.6 °F 43.7 °F 30 in WNW 3 mph 10 mph 60 % 0 in
14:47 57.7 °F 44.4 °F 30 in WNW 2 mph 10 mph 61 % 0 in
14:52 58.1 °F 43.3 °F 30 in WSW 3 mph 10 mph 58 % 0 in
14:57 58.8 °F 44.1 °F 30 in West 5 mph 8 mph 58 % 0 in
15:02 59.7 °F 43 °F 30 in SW 2 mph 5 mph 54 % 0 in
15:07 60.1 °F 43.9 °F 30 in WNW 6 mph 6 mph 55 % 0 in
15:12 60.4 °F 43.2 °F 30 in NW 5 mph 14 mph 53 % 0 in
15:17 60.8 °F 44.6 °F 30 in West 3 mph 14 mph 55 % 0 in
15:22 60.8 °F 44.1 °F 30 in West 8 mph 14 mph 54 % 0 in
15:27 61.3 °F 44.6 °F 30 in WSW 5 mph 10 mph 54 % 0 in
15:32 61.2 °F 44.4 °F 30 in West 8 mph 10 mph 54 % 0 in
15:37 61.3 °F 44.6 °F 30 in WNW 2 mph 11 mph 54 % 0 in
15:42 61.2 °F 44.4 °F 30 in WNW 3 mph 11 mph 54 % 0 in
15:52 61.3 °F 44.1 °F 30 in West 2 mph 11 mph 53 % 0 in
15:57 61.7 °F 43.3 °F 30 in SSW 2 mph 10 mph 51 % 0 in
16:02 61.3 °F 43 °F 30 in WNW 6 mph 11 mph 51 % 0 in
16:07 61.2 °F 41.4 °F 30 in West 4 mph 11 mph 48 % 0 in
16:12 61.2 °F 43 °F 30 in WSW 3 mph 11 mph 51 % 0 in
16:17 61.3 °F 42.1 °F 30 in WNW 1 mph 11 mph 49 % 0 in
16:22 61.3 °F 42.6 °F 29.9 in WSW 4 mph 10 mph 50 % 0 in
16:27 61.7 °F 41.2 °F 29.9 in WNW 4 mph 9 mph 47 % 0 in
16:32 61.9 °F 43.5 °F 29.9 in WNW 6 mph 9 mph 51 % 0 in
16:37 62.1 °F 43.7 °F 29.9 in WNW 3 mph 9 mph 51 % 0 in
16:42 61.9 °F 43.5 °F 29.9 in West 2 mph 10 mph 51 % 0 in
16:47 61.9 °F 43.5 °F 29.9 in West 5 mph 10 mph 51 % 0 in
16:52 61.9 °F 43.5 °F 29.9 in NNW 4 mph 10 mph 51 % 0 in
16:57 61.9 °F 43.5 °F 29.9 in West 1 mph 10 mph 51 % 0 in
17:02 61.9 °F 43 °F 29.9 in West 1 mph 10 mph 50 % 0 in
17:07 61.7 °F 41.9 °F 29.9 in NW 4 mph 9 mph 48 % 0 in
17:12 61.2 °F 41.9 °F 29.9 in NW 3 mph 8 mph 49 % 0 in
17:17 61 °F 42.8 °F 29.9 in NW 2 mph 7 mph 51 % 0 in
17:22 60.8 °F 45.9 °F 29.9 in NW 9 mph 9 mph 58 % 0 in
17:27 60.4 °F 46 °F 29.9 in NW 4 mph 13 mph 59 % 0 in
17:32 60.1 °F 44.8 °F 29.9 in WNW 1 mph 13 mph 57 % 0 in
17:37 60.1 °F 45.3 °F 29.9 in Calm   9 mph 58 % 0 in
17:42 60.3 °F 45 °F 29.9 in NNE 5 mph 9 mph 57 % 0 in
17:47 59.9 °F 44.6 °F 29.9 in NNW 4 mph 8 mph 57 % 0 in
17:52 59.9 °F 44.6 °F 29.9 in NNW 1 mph 8 mph 57 % 0 in
17:57 60.6 °F 43.9 °F 29.9 in NNE 3 mph 7 mph 54 % 0 in
18:02 61.2 °F 44.8 °F 29.9 in NNW 3 mph 7 mph 55 % 0 in
18:07 61 °F 45.1 °F 29.9 in WNW 2 mph 7 mph 56 % 0 in
18:12 61.2 °F 45.9 °F 29.9 in Calm   5 mph 57 % 0 in
18:17 61.3 °F 46 °F 29.9 in NW 3 mph 5 mph 57 % 0 in
18:22 60.8 °F 45.9 °F 29.9 in NNW 1 mph 5 mph 58 % 0 in
18:32 60.8 °F 46.4 °F 29.9 in WNW 1 mph 4 mph 59 % 0 in
18:38 61 °F 46 °F 29.9 in NW 2 mph 3 mph 58 % 0 in
18:47 62.2 °F 46.8 °F 29.9 in Calm   3 mph 57 % 0 in
18:52 62.1 °F 46.6 °F 29.9 in North 2 mph 3 mph 57 % 0 in
18:57 61.9 °F 46.4 °F 29.9 in NW 3 mph 6 mph 57 % 0 in
19:02 61.3 °F 46.4 °F 29.9 in NW 1 mph 8 mph 58 % 0 in
19:07 60.6 °F 46.6 °F 29.9 in NNW 4 mph 9 mph 60 % 0 in
19:12 60.3 °F 46.4 °F 29.9 in North 3 mph 10 mph 60 % 0 in
19:17 60.3 °F 46.8 °F 29.9 in NNW 3 mph 10 mph 61 % 0 in
19:22 59.7 °F 46.8 °F 29.9 in NNW 5 mph 9 mph 62 % 0 in
19:27 59.4 °F 47.1 °F 29.9 in North 5 mph 9 mph 64 % 0 in
19:32 58.8 °F 45.3 °F 29.9 in NNE 2 mph 9 mph 61 % 0 in
19:37 58.5 °F 45.1 °F 29.9 in NE 2 mph 8 mph 61 % 0 in
19:42 57.9 °F 44.6 °F 29.9 in NW 2 mph 8 mph 61 % 0 in
19:47 57.6 °F 44.6 °F 29.9 in NNW 1 mph 6 mph 62 % 0 in
19:52 57.2 °F 45.1 °F 29.9 in NNW 2 mph 4 mph 64 % 0 in
19:57 56.7 °F 45.5 °F 29.9 in NW 4 mph 5 mph 66 % 0 in
20:02 56.1 °F 45.7 °F 29.9 in NNW 1 mph 5 mph 68 % 0 in
20:07 55.6 °F 45.5 °F 29.9 in Calm   5 mph 69 % 0 in
20:12 55 °F 45.5 °F 29.9 in Calm   5 mph 70 % 0 in
20:17 54.7 °F 45.9 °F 29.9 in WNW 1 mph 5 mph 72 % 0 in
20:22 54.3 °F 45.9 °F 29.9 in Calm   5 mph 73 % 0 in
20:27 54 °F 45.9 °F 29.9 in NW 1 mph 5 mph 74 % 0 in
20:32 53.6 °F 45.9 °F 29.9 in Calm   3 mph 75 % 0 in
20:37 53.4 °F 46 °F 29.9 in Calm   3 mph 76 % 0 in
20:42 53.4 °F 46 °F 29.9 in NNW 1 mph 3 mph 76 % 0 in
20:47 53.2 °F 46.2 °F 29.9 in Calm   3 mph 77 % 0 in
20:52 53.1 °F 46.4 °F 29.9 in Calm   3 mph 78 % 0 in
20:57 52.7 °F 46 °F 30 in Calm   3 mph 78 % 0 in
21:02 52.7 °F 46 °F 30 in Calm   3 mph 78 % 0 in
21:12 52.5 °F 46.2 °F 30 in Calm   2 mph 79 % 0 in
21:17 52.3 °F 46 °F 30 in Calm   1 mph 79 % 0 in
21:22 51.8 °F 45.9 °F 30 in Calm   1 mph 80 % 0 in
21:27 51.4 °F 45.9 °F 30 in Calm     81 % 0 in
21:32 51.3 °F 45.7 °F 30 in Calm     81 % 0 in
21:37 51.1 °F 45.9 °F 30 in Calm     82 % 0 in
21:42 51.1 °F 45.9 °F 30 in Calm   1 mph 82 % 0 in
21:47 51.1 °F 45.9 °F 30 in Calm   1 mph 82 % 0 in
21:52 50.7 °F 45.7 °F 30 in Calm   1 mph 83 % 0 in
21:57 50.7 °F 45.7 °F 30 in Calm   1 mph 83 % 0 in
22:02 50.5 °F 45.9 °F 30 in Calm   1 mph 84 % 0 in
22:07 50.5 °F 46.2 °F 30 in Calm     85 % 0 in
22:12 50.5 °F 46.2 °F 30 in Calm     85 % 0 in
22:17 50.5 °F 46.2 °F 30 in Calm     85 % 0 in
22:22 50.5 °F 45.9 °F 30 in Calm     84 % 0 in
22:27 50.4 °F 45.7 °F 30 in WNW 1 mph   84 % 0 in
22:32 50 °F 45.7 °F 30 in Calm   1 mph 85 % 0 in
22:37 50 °F 46 °F 30 in Calm   1 mph 86 % 0 in
22:42 50.2 °F 45.9 °F 30 in Calm   1 mph 85 % 0 in
22:47 49.8 °F 45.9 °F 30 in Calm   1 mph 86 % 0 in
22:52 49.6 °F 45.7 °F 30 in Calm   1 mph 86 % 0 in
22:57 49.6 °F 45.9 °F 30 in Calm   1 mph 87 % 0 in
23:02 49.8 °F 46 °F 30 in Calm   1 mph 87 % 0 in
23:12 49.5 °F 46 °F 30 in Calm   2 mph 88 % 0 in
23:17 49.3 °F 45.9 °F 30 in Calm   2 mph 88 % 0 in
23:22 49.5 °F 46 °F 30 in Calm   2 mph 88 % 0 in
23:27 49.3 °F 45.9 °F 30 in Calm   2 mph 88 % 0 in
23:32 49.3 °F 45.9 °F 30 in WNW 1 mph 2 mph 88 % 0 in
23:37 49.3 °F 46.2 °F 30 in Calm   2 mph 89 % 0 in
23:42 49.3 °F 45.9 °F 30 in Calm   2 mph 88 % 0 in
23:47 49.1 °F 45.7 °F 30 in Calm   1 mph 88 % 0 in
23:52 48.9 °F 45.9 °F 30 in WNW 1 mph 1 mph 89 % 0 in
23:57 48.7 °F 45.7 °F 30 in WNW 1 mph 2 mph 89 % 0 in
Meteo18
Compliments of Weather Underground - 4 mb

Script developed by  Jim McMurry - jmcmurry@mwt.net Adapted for the template by  Wim van der Kuil - Leuven-Template.eu

You find our weather info also at:

European Weather Network

Weather Underground

Equipment we use:

Weather-station
Davis Vue

Weather-program
Meteohub

Weather-server
Raspberry PI 2 B+

Provider
1 and 1

Davis Vue

Meteohub

Raspberry PI 2 B+

1 and 1